Date,TemperatureHighF,TemperatureAvgF,TemperatureLowF,DewpointHighF,DewpointAvgF,DewpointLowF,HumidityHigh,HumidityAvg,HumidityLow,PressureMaxIn,PressureMinIn,WindSpeedMaxMPH,WindSpeedAvgMPH,GustSpeedMaxMPH,PrecipitationSumIn
2013-1-1,37.0,32.8,24.8,29.4,23.5,13.3,80,69,55,30.07,29.94,8,3,0,0.22
2013-1-2,26.2,25.5,23.5,14.6,14.1,13.5,68,62,58,30.20,30.06,5,1,0,0.00
2013-1-3,32.4,30.6,25.3,22.3,19.4,13.5,67,63,54,30.18,30.10,6,3,0,0.00
2013-1-4,33.6,31.4,29.8,22.8,21.3,19.5,72,66,59,30.12,30.02,9,4,0,0.00
2013-1-5,36.0,30.4,29.3,23.9,21.2,19.5,76,68,60,30.29,30.13,4,3,0,0.00
2013-1-6,41.7,40.4,39.2,29.2,28.2,27.6,67,62,58,29.98,29.95,5,2,0,0.00
2013-1-7,38.8,36.4,35.4,31.0,30.6,29.9,83,79,70,30.37,30.21,4,2,0,0.00
2013-1-8,39.2,27.3,17.2,27.3,22.6,15.8,99,84,62,30.33,30.29,2,0,0,0.00
2013-1-9,36.0,33.6,30.6,33.6,30.1,27.7,91,87,78,30.18,30.09,3,1,0,0.00
2013-1-11,33.6,32.4,31.5,28.4,27.8,27.6,86,83,81,30.38,30.27,4,1,0,0.00
2013-1-12,39.2,38.3,37.8,37.9,37.3,37.0,97,96,95,30.05,30.04,1,0,0,0.00
2013-1-13,39.2,39.2,39.2,38.9,38.9,38.9,99,99,99,29.88,29.88,0,0,0,0.00
2013-1-14,44.4,39.9,36.0,43.2,35.3,25.8,99,85,61,30.24,29.78,4,1,0,0.15
2013-1-15,36.9,31.5,23.9,28.3,25.1,21.4,94,78,60,30.27,30.08,2,0,0,0.00
2013-1-16,30.6,30.1,30.0,28.6,28.5,28.5,94,94,92,30.06,30.04,3,1,0,0.00
2013-1-18,29.3,23.8,18.1,20.1,11.4,8.5,83,60,42,30.32,30.08,10,3,0,0.00
2013-1-19,30.6,19.3,17.2,19.5,14.9,13.9,88,83,63,30.17,30.01,2,0,0,0.00
2013-1-20,45.9,44.0,39.4,30.9,23.0,15.9,59,44,33,29.75,29.54,17,7,0,0.04
2013-1-22,16.2,9.3,7.2,-1.1,-2.9,-5.6,67,57,45,30.12,29.99,7,3,0,0.00
2013-1-23,18.0,12.1,6.1,4.6,0.8,-1.6,74,61,47,30.14,30.03,6,2,0,0.00
2013-1-24,14.5,12.8,11.8,0.9,0.6,0.1,60,58,52,30.38,30.37,2,1,0,0.00
2013-1-25,18.9,10.6,6.8,11.8,3.9,1.4,90,74,56,30.38,29.93,4,1,0,0.01
2013-1-26,21.0,17.3,11.3,13.6,11.9,8.5,89,79,72,30.30,30.17,2,0,0,0.01
2013-1-27,26.1,19.8,8.6,18.0,14.4,5.8,89,79,67,30.43,30.31,2,0,0,0.01
2013-1-28,31.8,25.9,23.2,28.7,21.6,16.6,91,84,72,30.32,29.98,3,1,0,0.00
2013-1-29,36.9,34.5,32.2,35.7,33.7,31.7,99,97,91,29.99,29.81,3,0,0,0.28
2013-1-30,54.3,40.8,32.9,52.8,40.3,32.7,99,98,93,29.81,29.05,5,1,0,1.08
2013-1-31,54.5,34.9,24.6,52.2,25.7,12.2,97,70,49,29.67,28.99,15,5,0,0.66
2013-2-1,26.4,22.0,16.0,18.2,9.0,4.8,77,57,43,30.18,29.66,10,4,0,0.00
2013-2-2,25.2,17.8,13.6,18.4,8.1,4.1,89,66,51,30.18,29.89,7,2,0,0.00
2013-2-3,29.7,22.1,19.4,23.1,13.0,10.6,76,67,63,29.80,29.66,7,3,0,0.00
2013-2-4,29.7,25.6,19.2,15.9,13.8,12.0,73,61,50,29.90,29.79,5,3,0,0.00
2013-2-8,34.5,34.5,34.5,29.6,29.6,29.6,82,82,82,29.70,29.70,1,1,0,0.00
2013-2-9,36.1,34.7,34.0,17.3,15.7,14.7,50,45,41,30.19,30.17,7,4,0,0.01
2013-2-11,41.7,40.1,38.1,36.6,35.5,34.5,90,84,80,29.66,29.53,13,3,0,0.03
2013-2-14,35.1,35.1,35.1,30.8,30.8,30.8,84,84,84,29.79,29.79,1,1,0,0.00
2013-2-16,36.1,32.4,28.4,15.2,12.0,9.7,51,43,34,29.81,29.75,6,3,0,0.01
2013-2-17,27.7,24.7,22.8,16.1,9.6,2.1,71,53,37,29.86,29.73,10,4,0,0.00
2013-2-19,37.0,35.4,33.1,33.8,30.2,22.6,88,82,65,29.66,29.56,5,2,0,0.16
2013-2-20,26.8,23.4,21.0,13.8,11.8,10.3,67,61,51,29.99,29.76,11,4,0,0.01
2013-2-21,31.5,31.5,31.5,16.4,16.4,16.4,53,53,53,30.13,30.13,0,0,0,0.00
2013-2-22,33.8,33.8,33.8,22.6,22.3,21.8,63,62,61,30.12,30.10,2,1,0,0.00
2013-2-23,38.3,35.4,33.6,32.9,32.2,30.7,96,88,75,29.86,29.73,1,0,0,0.07
2013-2-24,36.0,32.8,28.2,32.6,25.6,19.4,97,76,52,29.97,29.70,9,2,0,0.01
2013-2-25,50.2,35.4,23.5,25.8,22.6,18.7,86,62,35,30.09,29.97,5,1,0,0.00
2013-2-26,42.1,34.8,25.7,32.7,28.4,22.4,95,78,57,30.11,29.66,8,2,0,0.26
2013-2-27,40.8,35.4,32.5,37.2,34.0,31.5,98,95,87,29.64,29.46,4,1,0,0.90
2013-2-28,42.1,37.0,33.1,34.6,31.4,29.8,97,81,65,29.58,29.47,5,2,0,0.02
2013-3-1,39.2,36.0,31.5,29.5,25.9,20.7,79,67,57,29.77,29.57,7,2,0,0.00
2013-3-2,36.9,30.8,27.7,21.7,20.5,18.9,73,65,51,29.77,29.67,8,3,0,0.00
2013-3-3,34.7,30.5,26.2,21.2,19.9,18.7,81,65,54,29.73,29.66,8,4,0,0.17
2013-3-4,32.0,31.2,30.4,20.9,20.8,20.8,67,65,63,29.89,29.87,3,3,0,0.00
2013-3-5,44.1,34.8,27.5,26.2,24.1,20.1,78,66,49,29.95,29.74,6,2,0,0.00
2013-3-6,44.6,38.4,31.5,30.4,27.9,24.2,75,66,55,29.95,29.69,6,3,0,0.00
2013-3-7,46.6,38.3,28.4,28.4,24.7,22.5,83,59,41,30.09,29.94,7,2,0,0.00
2013-3-8,48.7,37.3,27.5,25.8,22.8,20.8,78,57,39,30.24,30.06,10,4,0,0.00
2013-3-9,57.4,49.7,37.6,30.9,27.4,25.4,68,44,29,30.14,30.11,0,0,0,0.00
2013-3-10,62.2,61.0,59.7,26.9,26.3,25.7,27,26,26,30.08,30.00,5,4,0,0.00
2013-3-11,54.9,54.4,53.8,44.2,42.0,40.8,70,63,59,29.79,29.77,7,6,0,0.00
2013-3-24,46.4,42.7,38.3,24.4,22.5,20.7,57,45,38,29.61,29.54,5,2,0,0.00
2013-3-25,38.3,35.6,32.7,33.3,31.1,23.6,91,84,56,29.52,29.43,6,2,0,0.23
2013-3-26,49.1,44.4,39.4,27.1,25.9,24.2,61,49,42,29.80,29.69,5,2,0,0.03
2013-3-27,45.9,42.8,34.9,29.1,27.8,26.1,70,56,50,29.92,29.86,7,4,0,0.00
2013-3-28,43.5,40.9,35.8,31.1,27.0,25.6,82,58,50,30.10,29.96,6,2,0,0.00
2013-3-29,43.5,37.7,32.5,32.9,29.9,26.7,79,74,66,30.11,30.05,4,1,0,0.00
2013-3-30,59.2,44.2,28.0,30.7,23.9,18.3,87,50,22,30.08,29.95,5,1,0,0.00
2013-3-31,42.6,34.1,29.3,38.1,26.0,22.9,84,72,61,29.98,29.76,4,0,0,0.02
2013-4-1,46.6,45.6,44.2,31.2,29.7,28.5,60,54,49,29.67,29.66,17,11,0,0.00
2013-4-19,49.6,49.3,49.1,41.3,39.7,37.5,73,70,64,29.65,29.63,3,2,0,0.00
2013-4-20,51.8,45.7,36.5,38.4,29.3,20.3,71,53,38,30.27,29.65,12,4,0,0.00
2013-4-21,58.3,40.7,27.7,30.3,24.4,19.7,80,55,27,30.51,30.28,6,2,0,0.00
2013-4-22,63.0,47.1,33.4,33.2,29.4,26.4,79,54,28,30.47,30.26,6,2,0,0.00
2013-4-23,66.2,50.9,40.8,41.3,35.9,29.3,75,58,38,30.32,29.95,6,2,0,0.00
2013-4-24,73.2,52.8,38.8,57.9,43.4,32.8,93,72,48,29.96,29.56,9,2,0,0.40
2013-4-25,65.1,50.1,39.0,35.7,31.9,24.7,79,52,27,30.18,29.97,6,3,0,0.00
2013-4-26,67.6,51.9,37.4,37.0,31.1,23.3,85,50,19,30.37,30.19,7,2,0,0.00
2013-4-27,78.6,53.4,33.3,41.6,33.9,29.0,85,54,22,30.35,30.08,4,1,0,0.00
2013-4-28,68.7,54.2,39.9,48.6,41.8,36.4,88,65,38,30.14,29.99,10,2,0,0.00
2013-4-29,58.5,55.3,52.7,53.9,48.6,42.4,93,78,62,30.00,29.94,5,2,0,0.00
2013-4-30,66.2,59.0,50.9,54.7,52.4,49.1,94,79,64,30.17,29.99,4,1,0,0.00
2013-5-1,79.7,60.1,43.7,49.1,38.9,30.2,96,54,19,30.30,30.17,5,1,0,0.00
2013-5-2,80.6,60.2,40.6,46.1,40.6,35.4,88,54,22,30.35,30.15,7,2,0,0.00
2013-5-3,76.5,61.0,45.9,46.3,42.8,35.8,89,55,33,30.28,30.12,7,2,0,0.01
2013-5-4,78.1,59.4,40.5,46.8,42.2,37.0,89,56,28,30.21,30.00,7,2,0,0.00
2013-5-5,77.9,58.2,42.1,47.3,39.0,28.5,96,57,18,30.12,29.95,10,2,0,0.00
2013-5-6,79.2,58.3,41.2,54.1,45.7,37.5,91,65,42,30.09,29.92,5,1,0,0.00
2013-5-7,77.7,64.6,52.2,57.3,52.7,50.0,94,69,41,30.00,29.85,10,2,0,0.00
2013-5-8,58.8,57.4,56.7,58.0,57.0,56.4,99,99,97,29.82,29.81,1,0,0,0.00
2013-5-9,69.1,60.4,54.3,62.7,57.1,54.0,99,89,70,29.85,29.78,4,1,0,0.11
2013-5-10,70.2,61.1,54.3,63.7,59.1,54.0,99,93,80,29.90,29.70,5,1,0,0.75
2013-5-11,68.5,61.1,57.6,62.6,58.2,49.0,99,91,58,29.69,29.59,5,1,0,0.21
2013-5-12,57.6,50.9,42.3,48.7,37.6,30.0,92,62,37,29.87,29.61,19,4,0,0.08
2013-5-13,54.1,44.7,35.8,34.2,29.0,25.0,81,56,36,30.06,29.87,10,3,0,0.00
2013-5-14,62.8,46.3,29.3,43.3,31.5,23.0,91,61,25,30.10,29.89,8,2,0,0.00
2013-5-15,87.6,63.9,47.1,62.8,51.1,43.1,87,66,38,29.91,29.46,9,2,0,0.00
2013-5-16,85.5,69.4,55.6,59.4,48.5,39.1,88,54,20,29.80,29.61,14,2,0,0.00
2013-5-17,79.2,62.2,45.9,48.6,44.9,41.5,86,56,31,30.07,29.81,5,1,0,0.00
2013-5-18,70.7,62.6,54.9,56.5,50.1,44.4,74,64,56,30.11,30.04,5,2,0,0.00
2013-5-19,67.6,62.4,58.6,59.7,57.1,54.2,90,83,72,30.10,29.97,4,1,0,0.00
2013-5-20,89.8,70.6,61.3,70.0,63.2,59.4,94,79,50,29.98,29.78,4,1,0,0.00
2013-5-21,92.7,77.5,61.9,72.4,66.0,61.3,99,72,43,29.83,29.60,7,2,0,0.00
2013-5-22,93.6,76.3,64.9,69.1,64.9,62.6,95,72,38,29.76,29.59,12,2,0,0.19
2013-5-23,81.0,68.5,62.1,68.0,64.2,61.3,99,87,58,29.71,29.54,10,1,0,0.51
2013-5-24,62.1,52.2,45.5,61.8,44.7,35.8,99,76,59,30.05,29.58,12,4,0,0.03
2013-5-25,65.3,50.1,40.8,37.8,35.7,31.3,81,61,31,30.07,29.95,15,4,0,0.02
2013-5-26,70.9,50.5,38.7,38.4,36.4,33.1,87,63,25,30.11,29.99,10,2,0,0.00
2013-5-27,76.8,57.3,39.0,47.7,40.2,35.2,87,57,27,30.19,29.99,7,2,0,0.00
2013-5-28,62.2,57.1,52.2,58.7,53.7,47.4,98,89,71,30.06,29.93,5,1,0,0.33
2013-5-29,90.5,71.2,59.0,70.2,63.2,58.4,99,80,41,29.97,29.87,8,1,0,0.64
2013-5-30,91.2,70.5,60.4,68.9,62.9,59.3,96,79,41,30.04,29.93,6,1,0,0.00
2013-5-31,95.4,76.9,63.3,71.1,64.7,61.7,96,71,37,30.02,29.82,8,1,0,0.09
2013-6-2,77.5,73.9,70.7,63.4,62.8,62.4,75,69,62,29.70,29.65,6,2,0,0.00
2013-6-3,80.2,70.1,58.8,62.3,54.8,41.3,90,61,32,29.88,29.69,8,2,0,0.00
2013-6-4,82.4,63.2,46.4,52.1,45.3,40.1,84,56,27,30.01,29.88,10,2,0,0.00
2013-6-5,85.8,66.5,47.7,54.2,48.9,44.1,89,57,33,30.11,29.89,6,1,0,0.00
2013-6-6,70.9,64.9,59.5,59.5,54.0,47.8,98,69,49,29.90,29.72,6,2,0,0.14
2013-6-7,66.6,63.4,60.3,63.8,62.2,59.7,99,96,90,29.72,29.58,5,1,0,0.04
2013-6-8,79.9,66.5,58.3,63.2,59.2,54.8,99,79,47,29.97,29.60,7,2,0,0.00
2013-6-9,84.2,68.0,54.0,62.7,56.5,52.6,97,71,37,30.09,29.95,4,1,0,0.00
2013-6-10,72.1,66.8,63.5,68.7,64.2,58.9,99,91,77,29.97,29.62,5,2,0,0.62
2013-6-11,75.7,67.7,64.2,67.9,60.2,-99.9,99,82,63,29.69,29.59,12,-19,0,0.07
2013-6-12,85.8,71.0,60.3,66.7,60.6,56.3,95,73,40,29.77,29.65,7,2,0,0.00
2013-6-13,73.8,66.8,60.1,68.7,63.1,55.6,99,88,76,29.64,29.31,6,2,0,0.55
2013-6-14,80.2,66.4,57.9,60.7,55.9,54.6,92,71,42,29.85,29.53,11,2,0,0.00
2013-6-17,88.9,75.3,66.7,65.4,62.9,57.7,83,67,35,29.77,29.72,7,1,0,0.01
2013-6-18,80.2,72.6,59.7,64.9,59.8,51.8,95,65,55,29.81,29.69,6,2,0,0.00
2013-6-19,85.3,72.0,59.2,51.8,50.3,47.6,74,50,28,30.03,29.81,4,1,0,0.00
2013-6-20,88.5,77.1,63.5,63.3,59.8,51.1,79,56,38,30.14,30.04,5,2,0,0.00
2013-6-21,86.4,67.4,60.3,64.3,60.8,58.4,95,81,42,30.14,30.08,3,1,0,0.00
2013-6-22,79.9,66.5,61.3,63.8,60.9,59.3,93,84,58,30.10,30.09,4,2,0,0.00
2013-6-23,94.1,83.2,69.3,70.5,68.1,65.6,88,62,45,30.05,29.88,4,1,0,0.00
2013-6-24,96.1,78.7,67.1,70.4,66.6,63.4,92,69,35,29.99,29.82,6,2,0,0.00
2013-6-25,88.7,76.4,67.5,72.5,67.8,64.6,96,76,53,29.87,29.71,9,2,0,0.25
2013-6-26,87.4,73.9,66.0,69.2,66.8,65.1,97,80,50,29.79,29.68,8,1,0,0.09
2013-6-27,81.7,70.9,65.7,71.8,67.6,63.6,98,90,70,29.70,29.44,7,1,0,1.28
2013-6-28,83.1,71.7,65.1,68.6,65.5,61.6,99,82,60,29.45,29.31,5,1,0,0.00
2013-6-29,89.8,72.8,62.1,65.1,62.1,60.1,94,72,41,29.58,29.37,8,2,0,0.00
2013-6-30,95.7,75.1,63.0,72.2,65.5,60.9,95,75,40,29.78,29.57,11,1,0,0.89
2013-7-1,79.2,70.7,66.7,73.2,68.6,65.3,99,93,80,29.85,29.72,5,1,0,0.45
2013-7-2,87.1,74.7,68.9,73.9,70.5,68.6,99,88,63,29.98,29.84,5,1,0,0.03
2013-7-3,92.1,78.0,69.1,72.4,70.0,68.2,97,78,52,30.07,29.97,5,1,0,0.00
2013-7-4,95.0,81.2,70.0,72.7,70.4,68.8,97,72,46,30.09,29.98,6,1,0,0.00
2013-7-5,90.9,77.1,68.9,75.8,70.8,67.7,96,82,53,30.05,29.93,7,1,0,0.02
2013-7-6,96.8,79.9,70.2,72.9,70.6,68.5,95,76,45,30.06,29.89,4,1,0,0.00
2013-7-7,92.1,77.5,69.6,72.7,70.1,67.8,94,80,48,29.95,29.83,5,1,0,0.75
2013-7-8,81.5,72.6,67.6,71.2,68.3,66.6,98,87,64,29.96,29.87,5,1,0,0.68
2013-7-9,83.8,73.5,67.1,73.8,69.3,65.9,97,87,66,29.96,29.83,5,1,0,0.70
2013-7-10,87.1,76.0,68.2,73.7,70.4,63.5,97,84,61,29.82,29.66,12,1,0,0.37
2013-7-11,86.4,74.2,66.7,67.2,62.8,56.3,96,72,36,29.85,29.69,7,2,0,0.00
2013-7-12,80.1,70.3,62.8,66.0,62.3,58.6,90,76,61,29.98,29.84,4,1,0,0.02
2013-7-13,86.7,72.7,66.4,72.1,68.1,64.5,96,86,61,30.13,29.96,4,1,0,0.07
2013-7-14,96.1,79.2,67.8,72.5,69.5,66.5,98,76,45,30.21,30.11,4,1,0,0.00
2013-7-15,96.6,77.9,68.7,75.3,70.8,66.8,95,81,46,30.20,30.05,5,1,0,0.86
2013-7-16,100.6,82.3,71.6,73.9,71.5,67.5,98,74,39,30.18,30.03,7,1,0,0.00
2013-7-17,100.0,83.2,70.7,76.0,72.0,68.6,93,71,45,30.15,29.93,5,1,0,0.00
2013-7-18,97.5,80.9,71.4,76.0,71.8,68.1,93,76,46,30.01,29.86,5,2,0,0.68
2013-7-19,97.9,82.5,69.6,76.1,70.9,68.3,96,71,43,29.89,29.65,5,2,0,0.01
2013-7-20,91.6,81.5,75.4,72.1,68.7,65.4,80,66,45,29.73,29.63,8,2,0,0.00
2013-7-21,93.0,78.8,68.2,69.5,65.5,56.6,91,67,33,29.83,29.74,5,1,0,0.00
2013-7-22,87.1,75.6,68.2,74.6,68.8,64.7,96,80,59,29.82,29.63,3,1,0,0.24
2013-7-23,89.6,75.9,70.2,70.9,67.2,60.2,97,77,44,29.62,29.48,6,2,0,0.01
2013-7-24,76.8,69.8,66.4,62.1,57.5,52.1,84,67,44,29.73,29.55,9,3,0,0.00
2013-7-25,72.9,66.1,60.8,57.7,55.9,53.2,77,70,59,29.94,29.90,0,0,0,0.00
2013-7-26,89.1,68.3,53.2,60.8,55.4,50.3,91,67,35,30.01,29.84,4,1,0,0.00
2013-7-27,80.4,69.7,57.7,68.3,62.6,54.9,93,79,62,29.89,29.74,5,1,0,0.02
2013-7-28,88.0,73.2,63.1,67.0,62.6,55.6,96,73,36,29.87,29.72,4,1,0,0.84
2013-7-29,81.0,67.0,56.3,58.8,54.9,50.5,93,68,41,30.04,29.88,7,2,0,0.00
2013-7-30,85.1,67.4,54.3,60.4,55.6,51.4,92,69,40,30.12,30.01,6,1,0,0.00
2013-7-31,86.9,70.4,58.3,64.3,58.8,55.7,91,70,41,30.06,29.82,4,1,0,0.00
2013-8-1,87.8,73.5,67.1,67.4,64.0,61.3,86,73,46,29.81,29.65,5,1,0,0.00
2013-8-2,83.5,70.3,59.2,62.2,57.5,53.7,91,67,37,29.83,29.73,5,2,0,0.00
2013-8-3,85.8,70.9,61.2,67.4,60.7,54.0,95,73,35,29.80,29.73,5,1,0,0.20
2013-8-4,80.4,65.9,54.9,56.2,53.5,51.7,90,67,41,29.91,29.80,10,2,0,0.00
2013-8-5,77.5,64.7,52.9,56.4,52.0,47.7,91,66,36,30.02,29.89,5,1,0,0.00
2013-8-6,79.7,67.1,54.5,62.4,57.0,51.6,91,72,52,29.95,29.90,7,1,0,0.00
2013-8-7,77.7,70.5,64.8,68.1,63.6,60.0,94,79,68,29.93,29.82,5,1,0,0.08
2013-8-8,87.8,73.3,64.0,71.9,66.8,62.7,97,82,56,29.91,29.79,5,1,0,0.00
2013-8-9,88.5,76.4,68.5,75.2,71.2,65.8,96,85,58,29.84,29.69,5,1,0,0.60
2013-8-10,85.6,72.2,62.4,66.3,60.6,55.9,96,71,38,29.96,29.83,10,2,0,0.00
2013-8-11,89.2,70.8,61.3,65.6,58.9,54.8,86,68,43,30.03,29.88,5,1,0,0.00
2013-8-12,86.2,69.7,58.8,67.0,61.0,56.1,94,77,44,29.95,29.78,5,1,0,0.12
2013-8-13,83.5,71.6,63.0,66.4,60.8,48.4,96,72,44,29.78,29.60,9,2,0,0.01
2013-8-14,75.7,62.1,51.4,51.5,47.9,44.1,82,62,40,30.00,29.77,10,2,0,0.00
2013-8-15,80.6,62.0,48.0,56.7,49.3,45.2,92,67,35,30.10,29.96,6,1,0,0.00
2013-8-16,86.4,65.8,50.9,57.1,51.5,48.2,94,65,30,30.10,30.01,7,1,0,0.00
2013-8-17,82.9,66.5,53.1,59.2,54.7,50.5,94,69,39,30.20,30.09,3,1,0,0.00
2013-8-18,79.0,67.1,59.7,60.2,57.4,55.2,86,72,51,30.16,30.01,4,0,0,0.00
2013-8-19,84.0,69.2,61.3,64.5,60.4,57.1,89,75,47,30.03,29.89,4,1,0,0.02
2013-8-20,90.0,73.2,63.3,64.1,60.8,55.7,94,70,35,30.06,29.95,7,2,0,0.00
2013-8-21,89.2,73.2,60.1,66.0,61.1,57.5,93,69,40,30.11,29.92,4,1,0,0.00
2013-8-22,90.0,75.1,65.8,67.9,65.0,63.3,96,73,43,29.95,29.76,5,1,0,0.56
2013-8-23,86.4,71.8,63.1,66.6,60.4,52.3,98,72,33,30.04,29.83,5,1,0,0.00
2013-8-24,88.5,67.5,53.8,59.2,54.0,45.7,95,67,26,30.22,30.04,4,1,0,0.00
2013-8-25,86.2,68.2,52.9,60.9,55.5,50.6,94,68,37,30.31,30.06,5,1,0,0.00
2013-8-26,93.7,75.7,62.8,68.4,61.3,56.7,89,64,37,30.09,29.83,7,2,0,0.01
2013-8-27,96.3,78.7,66.4,69.5,67.1,64.6,94,71,40,29.84,29.73,5,1,0,0.05
2013-8-28,84.4,74.4,70.2,73.2,70.6,68.1,97,88,67,29.78,29.70,4,1,0,0.32
2013-8-29,98.6,79.5,68.2,71.2,68.0,64.8,97,73,35,29.88,29.76,3,1,0,0.01
2013-8-30,97.2,77.3,64.9,69.7,65.7,63.3,96,71,38,29.89,29.66,7,1,0,0.00
2013-8-31,91.2,78.4,68.0,71.6,67.3,64.2,91,71,43,29.71,29.60,5,1,0,0.01
2013-9-1,93.4,78.4,69.4,71.6,69.0,67.6,95,75,46,29.71,29.62,3,0,0,0.01
2013-9-2,95.2,77.7,70.3,70.8,67.0,59.3,96,73,41,29.67,29.55,9,2,0,0.00
2013-9-3,77.2,68.7,61.9,64.2,57.1,51.7,94,69,42,29.85,29.64,9,2,0,0.00
2013-9-4,88.3,69.1,54.9,58.3,55.3,52.9,94,66,34,29.96,29.84,9,2,0,0.00
2013-9-5,85.8,68.7,57.4,58.5,49.2,40.0,86,55,21,30.08,29.86,12,3,0,0.00
2013-9-6,85.8,61.0,44.4,46.8,41.4,36.0,86,55,19,30.20,29.99,6,1,0,0.00
2013-9-7,86.7,64.5,46.4,58.3,47.3,42.4,87,60,23,30.01,29.75,7,1,0,0.12
2013-9-8,81.0,66.7,55.4,63.3,56.0,46.4,95,71,39,30.00,29.74,5,1,0,0.00
2013-9-9,82.0,61.3,44.1,59.8,49.3,41.5,92,69,32,30.12,29.96,5,1,0,0.02
2013-9-10,97.7,75.9,61.3,72.2,65.3,59.0,96,73,41,30.04,29.86,7,1,0,0.00
2013-9-11,99.0,76.6,70.3,73.7,70.0,67.1,96,82,44,30.00,29.87,6,1,0,0.08
2013-9-12,89.8,73.0,63.0,71.8,67.6,59.8,96,84,53,29.88,29.60,10,1,0,0.19
2013-9-13,73.4,62.9,55.4,60.2,51.8,43.3,97,70,39,29.85,29.62,8,2,0,0.02
2013-9-14,73.2,57.2,47.1,47.7,43.9,42.0,87,63,34,30.04,29.85,5,2,0,0.00
2013-9-15,81.5,57.5,44.2,53.4,47.5,41.5,95,73,34,30.15,29.92,4,1,0,0.00
2013-9-16,80.4,62.0,52.9,55.7,50.9,39.4,92,69,38,30.22,29.93,5,2,0,0.03
2013-9-17,77.5,54.6,38.3,44.3,39.0,35.3,92,61,25,30.37,30.18,4,1,0,0.00
2013-9-18,83.7,56.9,40.6,46.4,42.0,37.6,93,65,21,30.25,30.00,4,1,0,0.00
2013-9-19,89.4,60.8,42.3,57.0,49.0,39.8,94,70,33,30.10,29.91,5,1,0,0.00
2013-9-20,90.0,66.7,53.8,60.9,55.6,50.9,95,72,37,29.97,29.74,5,1,0,0.00
2013-9-21,68.7,63.6,58.5,62.5,59.0,56.1,97,85,74,29.76,29.48,6,1,0,0.89
2013-9-22,69.1,58.6,51.6,57.5,47.6,39.0,98,70,40,29.87,29.60,9,2,0,0.01
2013-9-23,73.8,56.9,45.1,45.9,40.9,36.4,86,57,33,30.01,29.88,8,2,0,0.00
2013-9-24,78.6,55.3,42.1,51.6,44.2,39.4,95,72,34,30.05,29.81,6,1,0,0.01
2013-9-25,84.2,57.1,42.8,52.8,46.1,40.9,96,72,29,29.93,29.76,5,1,0,0.00
2013-9-26,85.8,60.1,44.6,51.5,47.8,42.3,95,70,30,29.99,29.87,4,1,0,0.00
2013-9-27,82.6,62.9,52.2,54.2,49.9,47.0,90,68,30,30.13,29.99,4,1,0,0.00
2013-9-28,75.9,58.2,48.2,54.5,49.0,46.2,96,75,42,30.23,30.08,2,0,0,0.00
2013-9-29,82.6,59.5,48.0,52.3,47.8,45.4,95,70,32,30.10,29.90,5,1,0,0.00
2013-9-30,87.3,61.1,46.0,54.6,49.2,43.8,95,70,29,30.00,29.81,5,1,0,0.00
2013-10-1,83.1,64.8,55.6,58.9,54.0,51.6,90,71,38,29.96,29.81,8,1,0,0.00
2013-10-2,85.8,66.6,52.5,62.2,56.7,51.0,96,74,44,29.95,29.84,7,1,0,0.00
2013-10-3,87.4,67.6,52.9,61.7,57.8,51.5,96,74,42,30.04,29.88,4,1,0,0.00
2013-10-4,85.8,71.4,63.7,68.1,64.4,61.5,95,80,51,29.97,29.85,5,1,0,0.00
2013-10-5,88.3,72.5,61.5,66.7,64.5,61.2,99,79,46,29.97,29.82,4,1,0,0.00
2013-10-6,90.0,75.1,66.7,68.4,65.2,62.4,97,75,42,29.86,29.70,8,2,0,0.00
2013-10-7,75.2,64.3,47.8,62.6,53.1,40.9,91,68,45,29.93,29.55,9,2,0,1.04
2013-10-8,78.1,56.3,43.3,46.9,42.1,37.6,95,65,26,30.23,29.93,6,1,0,0.00
2013-10-9,66.2,47.3,41.2,46.8,41.3,38.4,96,81,46,30.31,30.18,4,0,0,0.00
2013-10-10,68.0,51.9,42.3,49.9,43.7,36.2,93,76,33,30.20,30.03,4,0,0,0.09
2013-10-11,63.5,54.9,50.4,54.6,51.7,48.4,98,89,68,30.03,29.94,4,0,0,1.53
2013-10-12,78.4,58.7,48.0,53.0,48.0,38.8,98,73,25,30.11,29.98,4,1,0,0.00
2013-10-13,72.0,58.7,53.4,52.2,50.3,46.7,91,74,49,30.22,30.11,4,1,0,0.00
2013-10-14,67.6,58.1,54.1,53.5,51.6,48.8,91,80,59,30.24,30.13,3,0,0,0.00
2013-10-15,71.2,59.4,55.9,51.6,49.6,48.1,79,70,50,29.95,29.92,3,0,0,0.00
2013-10-16,64.6,56.9,52.5,56.1,51.5,47.8,97,82,74,29.93,29.75,2,0,0,0.01
2013-10-17,64.8,57.2,54.5,59.7,54.7,47.6,97,91,73,29.80,29.52,8,1,0,0.31
2013-10-18,68.2,54.4,43.5,46.2,41.9,37.3,82,64,35,29.88,29.67,8,2,0,0.00
2013-10-19,53.6,44.9,38.7,48.6,39.9,35.5,94,83,66,29.88,29.65,7,1,0,0.13
2013-10-20,63.5,50.0,40.1,39.8,36.5,34.1,81,62,35,29.94,29.72,5,1,0,0.00
2013-10-21,69.8,50.1,35.1,43.8,36.7,32.5,96,66,29,30.01,29.76,6,1,0,0.00
2013-10-22,63.0,51.6,41.5,45.0,37.4,27.4,83,61,29,29.76,29.68,9,2,0,0.00
2013-10-23,47.7,41.4,39.0,34.9,32.0,30.6,76,69,57,29.74,29.61,4,1,0,0.00
2013-10-24,46.9,43.1,39.4,31.5,29.6,26.7,73,59,45,29.87,29.82,8,4,0,0.00
2013-10-26,55.0,51.3,47.8,29.1,26.0,24.1,48,37,30,29.90,29.74,8,3,0,0.00
2013-10-27,52.0,44.8,34.0,33.5,30.9,27.8,79,59,44,30.01,29.77,6,2,0,0.00
2013-10-28,66.2,43.9,27.7,36.4,31.4,24.3,88,65,31,30.21,30.00,5,1,0,0.00
2013-10-29,61.2,43.8,31.6,36.5,33.0,28.5,93,68,39,30.32,30.19,4,0,0,0.00
2013-10-30,72.7,46.7,32.0,41.5,35.4,29.1,91,69,28,30.20,29.98,4,0,0,0.00
2013-10-31,63.1,55.1,47.3,56.8,49.9,39.6,94,83,73,30.04,29.50,7,1,0,0.19
2013-11-1,71.4,61.1,46.0,58.7,48.6,39.5,86,66,36,29.56,29.26,12,3,0,0.39
2013-11-2,57.4,47.5,38.8,44.6,39.8,36.6,95,76,50,29.74,29.53,7,1,0,0.01
2013-11-3,55.2,42.6,27.1,39.9,27.3,18.8,78,57,29,30.40,29.75,11,2,0,0.00
2013-11-4,48.4,34.1,21.9,23.1,19.8,16.8,85,59,30,30.55,30.41,3,1,0,0.00
2013-11-5,56.8,42.9,32.9,35.8,30.0,23.0,82,61,37,30.50,30.32,3,0,0,0.00
2013-11-6,65.5,52.4,37.4,48.9,42.6,33.0,89,71,54,30.31,29.79,7,2,0,0.00
2013-11-7,61.9,50.4,38.1,52.7,40.4,24.2,96,69,53,29.92,29.70,11,3,0,0.33
2013-11-8,48.7,40.7,33.8,30.9,27.0,24.2,69,58,44,30.15,29.91,12,3,0,0.00
2013-11-9,50.9,40.7,28.6,31.9,27.5,24.1,83,61,41,30.18,29.78,6,1,0,0.00
2013-11-10,51.3,44.3,36.3,36.4,30.2,26.6,79,59,42,30.07,29.75,14,3,0,0.00
2013-11-11,50.5,43.2,31.5,34.2,28.4,22.4,80,57,33,30.12,29.85,5,2,0,0.00
2013-11-12,42.8,33.5,25.5,34.8,20.2,11.0,80,60,31,30.26,29.90,10,3,0,0.04
2013-11-13,41.4,32.0,23.0,23.3,17.7,12.4,67,55,43,30.34,30.16,7,2,0,0.00
2013-11-14,55.2,37.9,28.4,19.2,16.6,7.3,66,45,15,30.16,30.03,12,2,0,0.00
2013-11-15,55.2,35.1,22.6,28.8,23.1,17.1,81,63,31,30.13,30.00,3,0,0,0.00
2013-11-16,62.4,44.5,28.4,40.9,33.4,24.0,87,66,45,30.19,30.04,6,1,0,0.00
2013-11-17,60.3,52.5,43.3,55.7,49.1,37.6,98,88,78,30.05,29.44,6,1,0,0.78
2013-11-18,60.8,52.3,42.3,56.3,34.7,25.0,87,53,32,29.82,29.42,11,4,0,0.13
2013-11-19,45.9,37.3,25.9,29.0,23.0,19.7,79,57,39,30.31,29.83,10,3,0,0.00
2013-11-20,47.1,31.2,20.7,25.6,18.9,11.5,87,64,26,30.46,30.30,4,1,0,0.00
2013-11-21,49.5,36.3,22.8,33.3,25.6,16.4,77,66,43,30.45,30.21,4,1,0,0.00
2013-11-22,47.7,42.2,39.2,44.0,38.2,30.7,98,86,61,30.22,29.89,12,1,0,0.04
2013-11-23,43.3,33.3,22.5,30.6,20.4,5.0,75,60,40,30.07,29.88,14,3,0,0.00
2013-11-24,31.1,22.8,17.2,15.4,6.1,0.9,81,50,29,30.32,30.07,13,4,0,0.00
2013-11-25,33.3,26.5,16.5,12.0,9.7,6.4,74,51,33,30.36,30.10,6,2,0,0.00
2013-11-26,32.7,30.9,29.7,31.7,28.0,10.9,98,89,40,30.13,29.59,4,0,0,0.13
2013-11-27,37.9,32.7,26.4,34.1,27.4,14.4,99,82,59,29.82,29.44,14,2,0,0.63
2013-11-28,34.0,26.7,23.2,20.7,18.7,15.3,85,72,57,30.32,29.82,6,2,0,0.00
2013-11-29,42.1,27.2,19.4,22.4,19.4,16.4,93,74,45,30.58,30.31,6,1,0,0.04
2013-11-30,32.9,26.1,21.4,18.5,17.8,16.5,84,72,55,30.35,30.22,1,0,0,0.01
2013-12-1,32.4,25.4,16.0,23.6,19.4,13.0,90,78,65,30.22,29.90,3,0,0,0.19
2013-12-2,38.7,31.8,27.0,29.4,26.1,21.9,93,80,68,29.89,29.75,3,0,0,0.03
2013-12-3,47.7,35.3,28.6,35.7,31.3,26.3,97,86,61,29.87,29.76,3,0,0,0.03
2013-12-4,44.1,35.4,30.7,35.8,32.8,30.0,99,91,70,29.98,29.87,4,1,0,0.00
2013-12-7,34.7,30.8,21.7,29.3,21.5,14.7,92,69,56,30.46,30.25,6,2,0,0.02
2013-12-8,29.7,23.1,16.5,23.8,17.7,12.2,89,80,64,30.47,30.16,4,1,0,0.00
2013-12-9,36.0,31.9,26.6,32.7,28.9,23.8,95,88,74,30.15,29.84,5,1,0,0.30
2013-12-10,33.6,30.1,24.3,27.5,17.9,8.1,79,61,41,30.02,29.81,9,3,0,0.00
2013-12-11,33.8,25.6,20.8,17.1,12.6,8.7,78,58,37,30.20,30.02,11,3,0,0.00
2013-12-12,25.5,20.6,17.8,15.6,6.9,1.3,79,56,39,30.27,30.02,10,3,0,0.00
2013-12-13,34.5,26.6,20.3,17.3,9.8,1.4,67,49,42,30.18,29.99,7,3,0,0.00
2013-12-14,27.3,25.2,22.5,25.3,19.7,14.6,92,80,67,30.23,29.67,7,2,0,0.00
2013-12-15,36.1,28.6,24.4,29.0,23.0,11.9,93,80,57,29.79,29.48,6,0,0,0.00
2013-12-16,27.5,18.5,9.7,12.3,8.1,5.0,83,65,45,30.06,29.80,9,2,0,0.00
2013-12-17,27.9,18.5,12.7,20.5,13.6,7.2,88,81,72,30.04,29.82,3,1,0,0.00
2013-12-18,35.6,25.3,13.8,22.5,17.9,10.7,88,75,57,30.03,29.86,8,2,0,0.02
2013-12-19,38.1,23.4,10.8,23.8,17.1,6.9,89,78,54,30.00,29.87,2,0,0,0.03
2013-12-20,38.3,31.4,24.1,30.8,26.8,21.3,90,83,71,29.95,29.80,3,0,0,0.19
2013-12-21,38.3,34.3,33.6,35.1,32.5,31.5,94,93,88,29.83,29.78,2,0,0,0.04
2013-12-28,55.4,42.2,32.2,30.0,28.2,27.0,82,60,36,29.98,29.93,6,1,0,0.01
2013-12-29,36.3,33.4,31.1,36.0,31.3,27.0,99,92,82,29.93,29.49,4,0,0,1.16
2013-12-30,35.8,32.4,30.4,27.3,21.3,14.9,71,63,52,29.98,29.82,13,7,0,0.01
2013-12-31,28.8,23.6,19.9,18.5,11.8,7.7,67,60,53,30.15,29.93,8,4,0,0.00
2014-1-1,30.9,23.8,18.3,20.4,16.6,10.4,88,74,64,30.25,30.02,4,1,0,0.00
2014-1-2,25.9,23.1,13.5,20.9,18.3,9.6,88,82,73,30.01,29.62,5,2,0,0.00